Time;durP1;ratioP1;P1;durP2;ratioP2;P2;SDS_P1;SDS_P2;PMS_P1;PMS_P2;Temp;Humidity;BMP_temperature;BMP_pressure;BME280_temperature;BME280_humidity;BME280_pressure;Samples;Min_cycle;Max_cycle;Signal;HPM_P1;HPM_P2
2023/07/05 00:00:39;;;;;;;9.40;3.95;;;15.00;99.90;;;;;;5073215;28;20451;-56
2023/07/05 00:03:05;;;;;;;7.03;3.53;;;15.00;99.90;;;;;;5073014;28;20517;-56
2023/07/05 00:05:35;;;;;;;6.78;3.17;;;14.90;99.90;;;;;;5072698;28;20049;-54
2023/07/05 00:08:01;;;;;;;13.00;4.28;;;15.00;99.90;;;;;;5071476;28;20032;-56
2023/07/05 00:10:27;;;;;;;10.82;3.78;;;14.90;99.90;;;;;;5072774;28;20040;-56
2023/07/05 00:12:53;;;;;;;8.32;4.10;;;14.90;99.90;;;;;;5072806;28;20047;-56
2023/07/05 00:15:18;;;;;;;8.88;4.50;;;14.90;99.90;;;;;;5072979;28;20074;-56
2023/07/05 00:17:44;;;;;;;7.93;3.90;;;15.00;99.90;;;;;;5072539;28;20028;-56
2023/07/05 00:20:10;;;;;;;17.20;4.55;;;14.90;99.90;;;;;;5072545;28;20387;-56
2023/07/05 00:22:36;;;;;;;13.70;4.05;;;14.90;99.90;;;;;;5072719;28;20033;-56
2023/07/05 00:25:02;;;;;;;11.48;4.63;;;14.90;99.90;;;;;;5072735;28;20036;-56
2023/07/05 00:27:28;;;;;;;12.63;4.65;;;14.90;99.90;;;;;;5071305;28;20068;-56
2023/07/05 00:29:54;;;;;;;10.00;4.00;;;14.90;99.90;;;;;;5072615;28;20076;-56
2023/07/05 00:32:20;;;;;;;9.05;4.18;;;14.90;99.90;;;;;;5072744;28;20048;-56
2023/07/05 00:34:46;;;;;;;11.52;4.95;;;14.80;99.90;;;;;;5072364;28;20596;-56
2023/07/05 00:37:12;;;;;;;11.45;5.20;;;14.80;99.90;;;;;;5072280;28;20076;-56
2023/07/05 00:39:38;;;;;;;13.82;5.30;;;14.80;99.90;;;;;;5072170;28;20044;-56
2023/07/05 00:42:04;;;;;;;11.77;4.80;;;14.80;99.90;;;;;;5072300;28;20045;-56
2023/07/05 00:44:30;;;;;;;9.05;4.35;;;14.90;99.90;;;;;;5071425;28;20048;-55
2023/07/05 00:47:01;;;;;;;9.25;4.20;;;14.80;99.90;;;;;;5072135;28;20143;-55
2023/07/05 00:49:29;;;;;;;12.35;5.10;;;14.80;99.90;;;;;;5072056;28;20032;-56
2023/07/05 00:52:10;;;;;;;9.57;4.85;;;14.80;99.90;;;;;;5064980;28;20044;-56
2023/07/05 00:54:41;;;;;;;7.68;4.43;;;14.80;99.90;;;;;;5067416;28;20395;-56
2023/07/05 00:57:18;;;;;;;12.52;5.35;;;14.70;99.90;;;;;;5072193;28;20032;-56
2023/07/05 00:59:54;;;;;;;10.40;5.07;;;14.80;99.90;;;;;;5072027;28;20048;-55
2023/07/05 01:02:21;;;;;;;8.98;5.22;;;14.80;99.90;;;;;;5072001;28;20036;-56
2023/07/05 01:04:46;;;;;;;9.73;5.20;;;14.80;99.90;;;;;;5072166;28;20036;-56
2023/07/05 01:07:12;;;;;;;13.07;5.15;;;14.70;99.90;;;;;;5072146;28;20047;-56
2023/07/05 01:09:38;;;;;;;11.70;4.90;;;14.70;99.90;;;;;;5071887;28;20082;-55
2023/07/05 01:12:47;;;;;;;12.43;5.35;;;14.70;99.90;;;;;;5071887;28;20041;-56
2023/07/05 01:15:17;;;;;;;8.43;5.15;;;14.70;99.90;;;;;;5029727;28;20049;-57
2023/07/05 01:18:11;;;;;;;11.35;5.18;;;14.80;99.90;;;;;;5029539;28;20061;-56
2023/07/05 01:20:40;;;;;;;11.98;5.65;;;14.80;99.90;;;;;;5029785;28;20101;-56
2023/07/05 01:23:24;;;;;;;13.48;5.43;;;14.80;99.90;;;;;;5029685;28;20042;-56
2023/07/05 01:26:10;;;;;;;9.18;4.95;;;14.80;99.90;;;;;;5029382;28;20045;-56
2023/07/05 01:29:08;;;;;;;9.23;5.28;;;14.80;99.90;;;;;;5029575;28;20120;-56
2023/07/05 01:31:46;;;;;;;13.20;6.55;;;14.80;99.90;;;;;;4951559;29;20501;-55
2023/07/05 01:34:29;;;;;;;11.45;6.13;;;14.80;99.90;;;;;;4951218;29;20599;-56
2023/07/05 01:36:56;;;;;;;9.07;5.72;;;14.80;99.90;;;;;;4951369;29;20047;-55
2023/07/05 01:39:21;;;;;;;12.40;6.20;;;14.80;99.90;;;;;;4951215;29;20482;-55
2023/07/05 01:41:47;;;;;;;12.45;6.25;;;14.70;99.90;;;;;;4951395;29;20087;-55
2023/07/05 01:44:15;;;;;;;13.25;7.07;;;14.70;99.90;;;;;;4935276;29;20128;-56
2023/07/05 01:46:55;;;;;;;14.63;6.83;;;14.70;99.90;;;;;;4983576;28;20121;-55
2023/07/05 01:49:39;;;;;;;15.75;6.53;;;14.80;99.90;;;;;;4990115;28;20085;-56
2023/07/05 01:52:26;;;;;;;15.18;7.38;;;14.80;99.90;;;;;;4989968;28;20038;-55
2023/07/05 01:55:15;;;;;;;16.40;8.10;;;14.70;99.90;;;;;;4990089;28;20164;-56
2023/07/05 01:58:03;;;;;;;12.98;8.10;;;14.70;99.90;;;;;;4993895;28;20070;-56
2023/07/05 02:00:30;;;;;;;13.32;6.72;;;14.70;99.90;;;;;;4981873;28;20073;-56
2023/07/05 02:03:04;;;;;;;18.48;8.98;;;14.70;99.90;;;;;;4993766;28;20047;-56
2023/07/05 02:05:31;;;;;;;16.40;8.20;;;14.70;99.90;;;;;;4993753;28;20390;-56
2023/07/05 02:07:59;;;;;;;20.25;9.73;;;14.60;99.90;;;;;;5017391;28;20059;-56
2023/07/05 02:10:25;;;;;;;16.55;8.52;;;14.70;99.90;;;;;;5074868;28;20501;-56
2023/07/05 02:12:52;;;;;;;17.98;8.82;;;14.60;99.90;;;;;;5074780;28;20045;-56
2023/07/05 02:15:19;;;;;;;12.35;8.27;;;14.60;99.90;;;;;;5075314;28;20390;-56
2023/07/05 02:17:45;;;;;;;16.83;8.65;;;14.60;99.90;;;;;;5075131;28;20047;-56
2023/07/05 02:20:11;;;;;;;15.63;8.23;;;14.50;99.90;;;;;;5075042;28;20028;-56
2023/07/05 02:22:37;;;;;;;20.45;8.90;;;14.50;99.90;;;;;;5075144;28;20032;-56
2023/07/05 02:25:03;;;;;;;15.43;8.70;;;14.60;99.90;;;;;;5074636;28;20514;-56
2023/07/05 02:27:28;;;;;;;19.65;10.25;;;14.50;99.90;;;;;;5075193;28;20073;-56
2023/07/05 02:29:55;;;;;;;17.65;9.48;;;14.60;99.90;;;;;;5075180;28;20092;-56
2023/07/05 02:32:21;;;;;;;15.88;10.05;;;14.50;99.90;;;;;;5074847;28;20067;-57
2023/07/05 02:34:47;;;;;;;17.45;10.43;;;14.60;99.90;;;;;;5074627;28;20048;-57
2023/07/05 02:37:14;;;;;;;13.23;9.95;;;14.60;99.90;;;;;;5074382;28;20060;-56
2023/07/05 02:39:40;;;;;;;16.73;9.80;;;14.50;99.90;;;;;;5074910;28;20048;-56
2023/07/05 02:42:06;;;;;;;16.83;10.05;;;14.40;99.90;;;;;;5074306;28;20040;-56
2023/07/05 02:44:32;;;;;;;18.95;10.98;;;14.50;99.90;;;;;;5074809;28;20044;-56
2023/07/05 02:46:58;;;;;;;17.95;10.48;;;14.50;99.90;;;;;;5074718;28;20037;-56
2023/07/05 02:49:23;;;;;;;20.23;11.15;;;14.40;99.90;;;;;;5073416;28;20110;-56
2023/07/05 02:51:50;;;;;;;20.75;11.27;;;14.50;99.90;;;;;;5067920;28;20479;-56
2023/07/05 02:54:15;;;;;;;25.13;12.18;;;14.40;99.90;;;;;;5067092;28;20051;-56
2023/07/05 02:56:41;;;;;;;25.42;12.48;;;14.50;99.90;;;;;;5074021;28;20033;-56
2023/07/05 02:59:07;;;;;;;19.52;11.35;;;14.30;99.90;;;;;;5073291;28;20082;-56
2023/07/05 03:01:32;;;;;;;19.38;11.27;;;14.40;99.90;;;;;;5059945;28;20045;-55
2023/07/05 03:03:58;;;;;;;17.35;11.98;;;14.50;99.90;;;;;;5057797;28;20032;-56
2023/07/05 03:06:23;;;;;;;20.40;12.43;;;14.40;99.90;;;;;;5065629;28;20032;-55
2023/07/05 03:08:49;;;;;;;28.55;13.20;;;14.40;99.90;;;;;;5062855;28;20506;-56
2023/07/05 03:11:15;;;;;;;19.33;11.80;;;14.50;99.90;;;;;;5069444;28;20104;-56
2023/07/05 03:13:40;;;;;;;17.63;11.88;;;14.50;99.90;;;;;;5074227;28;20048;-56
2023/07/05 03:16:07;;;;;;;23.33;13.82;;;14.40;99.90;;;;;;5073497;28;20076;-55
2023/07/05 03:18:33;;;;;;;19.83;13.20;;;14.50;99.90;;;;;;5061058;28;20063;-55
2023/07/05 03:20:58;;;;;;;24.23;13.88;;;14.50;99.90;;;;;;5073564;28;20040;-56
2023/07/05 03:23:24;;;;;;;24.50;14.23;;;14.40;99.90;;;;;;5073570;28;20029;-56
2023/07/05 03:25:56;;;;;;;26.45;14.85;;;14.40;99.90;;;;;;5073552;28;20036;-55
2023/07/05 03:28:22;;;;;;;23.77;13.77;;;14.40;99.90;;;;;;5073857;28;20402;-55
2023/07/05 03:31:01;;;;;;;24.70;13.88;;;14.40;99.90;;;;;;5074128;28;20549;-54
2023/07/05 03:33:28;;;;;;;15.27;11.90;;;14.40;99.90;;;;;;5070826;28;20033;-55
2023/07/05 03:36:10;;;;;;;19.73;12.38;;;14.60;99.90;;;;;;5062218;28;20040;-54
2023/07/05 03:38:36;;;;;;;15.50;12.35;;;14.40;99.90;;;;;;5073208;28;20110;-56
2023/07/05 03:41:03;;;;;;;22.58;12.32;;;14.50;99.90;;;;;;5073538;28;20478;-54
2023/07/05 03:43:32;;;;;;;18.27;13.07;;;14.50;99.90;;;;;;5073279;28;20032;-53
2023/07/05 03:45:59;;;;;;;22.80;14.07;;;14.60;99.90;;;;;;5073690;28;20091;-55
2023/07/05 03:48:29;;;;;;;23.30;13.82;;;14.40;99.90;;;;;;5072301;28;20098;-55
2023/07/05 03:50:58;;;;;;;20.45;12.98;;;14.60;99.90;;;;;;5073070;28;20037;-56
2023/07/05 03:53:25;;;;;;;18.52;13.20;;;14.60;99.90;;;;;;5072031;28;20036;-55
2023/07/05 03:55:51;;;;;;;16.83;12.13;;;14.60;99.90;;;;;;5073103;28;20048;-55
2023/07/05 03:58:16;;;;;;;19.33;12.85;;;14.60;99.90;;;;;;5071380;28;20048;-56
2023/07/05 04:00:42;;;;;;;17.27;12.77;;;14.60;99.90;;;;;;5073056;28;20028;-56
2023/07/05 04:03:08;;;;;;;20.27;12.30;;;14.60;99.90;;;;;;5071529;28;20033;-56
2023/07/05 04:05:34;;;;;;;16.10;11.98;;;14.40;99.90;;;;;;5072530;28;20040;-55
2023/07/05 04:08:00;;;;;;;17.45;12.40;;;14.70;99.90;;;;;;5066818;28;20120;-54
2023/07/05 04:10:26;;;;;;;18.40;11.20;;;14.60;99.90;;;;;;5064966;28;20417;-56
2023/07/05 04:12:52;;;;;;;14.20;9.43;;;14.80;99.90;;;;;;5072957;28;20419;-56
2023/07/05 04:15:19;;;;;;;11.55;8.82;;;14.70;99.90;;;;;;5072554;28;20126;-56
2023/07/05 04:17:45;;;;;;;14.02;9.18;;;14.70;99.90;;;;;;5072223;28;20139;-56
2023/07/05 04:20:11;;;;;;;13.13;10.38;;;14.90;99.90;;;;;;5073010;28;20449;-55
2023/07/05 04:22:39;;;;;;;15.88;9.00;;;14.80;99.90;;;;;;5072808;28;20484;-55
2023/07/05 04:25:05;;;;;;;14.23;10.00;;;14.70;99.90;;;;;;5072781;28;20111;-55
2023/07/05 04:27:31;;;;;;;15.85;9.43;;;15.00;99.90;;;;;;5072786;28;20044;-55
2023/07/05 04:29:57;;;;;;;12.18;9.52;;;14.80;99.90;;;;;;5072543;28;20101;-54
2023/07/05 04:32:22;;;;;;;11.75;8.95;;;14.90;99.90;;;;;;5072495;28;20046;-53
2023/07/05 04:34:48;;;;;;;11.68;8.98;;;15.00;99.90;;;;;;5072354;28;20048;-56
2023/07/05 04:37:14;;;;;;;12.52;9.25;;;15.00;99.90;;;;;;5072143;28;20145;-56
2023/07/05 04:39:39;;;;;;;12.20;10.00;;;15.20;99.90;;;;;;5072177;28;20519;-54
2023/07/05 04:42:05;;;;;;;13.43;10.13;;;15.20;99.90;;;;;;5072154;28;20475;-55
2023/07/05 04:44:31;;;;;;;16.83;9.40;;;15.00;99.90;;;;;;5072299;28;20111;-52
2023/07/05 04:46:56;;;;;;;9.77;8.75;;;15.10;99.90;;;;;;5071775;28;20467;-56
2023/07/05 04:49:22;;;;;;;12.02;9.48;;;15.20;99.90;;;;;;5072068;28;20032;-55
2023/07/05 04:51:48;;;;;;;13.02;9.20;;;15.30;99.90;;;;;;5072084;28;20044;-54
2023/07/05 04:54:16;;;;;;;14.07;8.93;;;15.20;99.90;;;;;;5071985;28;20044;-55
2023/07/05 04:56:42;;;;;;;13.13;8.75;;;15.20;99.90;;;;;;5071877;28;20070;-53
2023/07/05 04:59:10;;;;;;;15.15;8.43;;;15.10;99.90;;;;;;5072311;28;20047;-55
2023/07/05 05:01:37;;;;;;;12.13;7.20;;;15.30;99.90;;;;;;5072239;28;20041;-55
2023/07/05 05:04:02;;;;;;;10.65;6.97;;;15.20;99.90;;;;;;5071860;28;20032;-56
2023/07/05 05:06:28;;;;;;;12.52;6.80;;;15.20;99.90;;;;;;5072093;28;20381;-54
2023/07/05 05:08:54;;;;;;;10.13;6.82;;;15.10;99.90;;;;;;5058295;28;20072;-54
2023/07/05 05:11:19;;;;;;;10.32;4.88;;;15.10;99.90;;;;;;5071307;28;20040;-56
2023/07/05 05:13:45;;;;;;;7.05;4.93;;;15.20;99.90;;;;;;5071823;28;20047;-56
2023/07/05 05:16:10;;;;;;;9.45;4.47;;;15.20;99.90;;;;;;5072158;28;20044;-56
2023/07/05 05:18:37;;;;;;;10.27;4.72;;;15.10;99.90;;;;;;5071717;28;20523;-55
2023/07/05 05:21:03;;;;;;;7.68;3.92;;;15.00;99.90;;;;;;5072030;28;20045;-56
2023/07/05 05:23:29;;;;;;;5.30;3.75;;;15.00;99.90;;;;;;5071645;28;20471;-53
2023/07/05 05:25:55;;;;;;;6.40;3.97;;;14.90;99.90;;;;;;5072009;28;20033;-54
2023/07/05 05:28:21;;;;;;;6.45;3.38;;;14.90;99.90;;;;;;5070245;28;20044;-55
2023/07/05 05:30:48;;;;;;;6.07;3.47;;;14.90;99.90;;;;;;5071313;28;20040;-55
2023/07/05 05:33:15;;;;;;;5.53;4.18;;;14.80;99.90;;;;;;5071927;28;20081;-55
2023/07/05 05:35:48;;;;;;;6.70;4.13;;;14.80;99.90;;;;;;5071963;28;20069;-55
2023/07/05 05:38:16;;;;;;;7.63;4.13;;;14.90;99.90;;;;;;5071575;28;20103;-55
2023/07/05 05:40:42;;;;;;;6.03;4.00;;;14.80;99.90;;;;;;5071946;28;20111;-56
2023/07/05 05:43:07;;;;;;;7.18;3.88;;;14.80;99.90;;;;;;5071955;28;20300;-56
2023/07/05 05:45:33;;;;;;;6.70;4.57;;;14.80;99.90;;;;;;5071978;28;20620;-55
2023/07/05 05:47:59;;;;;;;6.75;4.18;;;14.90;99.90;;;;;;5072135;28;20098;-55
2023/07/05 05:50:25;;;;;;;5.95;4.13;;;14.90;99.90;;;;;;5071434;28;20475;-55
2023/07/05 05:52:50;;;;;;;5.85;4.32;;;15.10;99.90;;;;;;5071686;28;20036;-55
2023/07/05 05:55:17;;;;;;;5.93;4.10;;;15.10;99.90;;;;;;5071403;28;20029;-55
2023/07/05 05:57:42;;;;;;;6.72;3.97;;;15.20;99.90;;;;;;5071402;28;20479;-55
2023/07/05 06:00:09;;;;;;;5.88;4.00;;;15.10;99.90;;;;;;5071549;28;20044;-55
2023/07/05 06:02:36;;;;;;;4.30;3.65;;;15.20;99.90;;;;;;5071424;28;20051;-54
2023/07/05 06:05:03;;;;;;;7.75;4.45;;;15.10;99.90;;;;;;5071371;28;20044;-55
2023/07/05 06:07:29;;;;;;;5.93;4.43;;;15.10;99.90;;;;;;5069240;28;20120;-55
2023/07/05 06:09:55;;;;;;;7.10;3.90;;;15.10;99.90;;;;;;5059497;28;20044;-55
2023/07/05 06:12:21;;;;;;;5.28;4.10;;;15.20;99.90;;;;;;5071514;28;20040;-56
2023/07/05 06:14:46;;;;;;;7.53;3.85;;;15.20;99.90;;;;;;5071371;28;20067;-55
2023/07/05 06:17:12;;;;;;;9.43;4.07;;;15.30;99.90;;;;;;5071642;28;20036;-56
2023/07/05 06:19:38;;;;;;;5.22;3.55;;;15.30;99.90;;;;;;5071343;28;20055;-55
2023/07/05 06:22:04;;;;;;;4.60;3.33;;;15.20;99.90;;;;;;5071212;28;20033;-56
2023/07/05 06:24:31;;;;;;;7.35;3.67;;;15.30;99.90;;;;;;5069178;28;20491;-55
2023/07/05 06:26:58;;;;;;;7.05;3.50;;;15.20;99.90;;;;;;5070951;28;20071;-55
2023/07/05 06:29:23;;;;;;;5.50;3.08;;;15.20;99.90;;;;;;5071019;28;20052;-56
2023/07/05 06:31:49;;;;;;;7.68;3.42;;;15.10;99.90;;;;;;5071161;28;20036;-56
2023/07/05 06:34:15;;;;;;;4.43;3.35;;;15.20;99.90;;;;;;5052740;28;20040;-55
2023/07/05 06:36:40;;;;;;;5.50;3.30;;;15.10;99.90;;;;;;5071189;28;20127;-54
2023/07/05 06:39:06;;;;;;;8.63;3.92;;;15.20;99.90;;;;;;5070944;28;20347;-56
2023/07/05 06:41:32;;;;;;;6.05;3.50;;;15.10;99.90;;;;;;5071108;28;20038;-55
2023/07/05 06:43:57;;;;;;;5.57;3.97;;;15.20;99.90;;;;;;5074500;28;20078;-55
2023/07/05 06:46:23;;;;;;;6.97;3.70;;;15.20;99.90;;;;;;5074640;28;20051;-55
2023/07/05 06:48:50;;;;;;;4.68;3.03;;;15.40;99.90;;;;;;5074859;28;20044;-55
2023/07/05 06:51:16;;;;;;;7.00;3.42;;;15.50;99.90;;;;;;5075945;28;20075;-55
2023/07/05 06:53:43;;;;;;;3.85;3.45;;;15.50;99.90;;;;;;5074961;28;20115;-55
2023/07/05 06:56:09;;;;;;;4.95;3.22;;;15.50;99.90;;;;;;5074635;28;20390;-56
2023/07/05 06:58:36;;;;;;;6.28;3.30;;;15.40;99.90;;;;;;5074972;28;20047;-55
2023/07/05 07:01:03;;;;;;;7.28;3.00;;;15.30;99.90;;;;;;5074977;28;20032;-56
2023/07/05 07:03:28;;;;;;;8.35;3.38;;;15.30;99.90;;;;;;5073050;28;20041;-55
2023/07/05 07:05:56;;;;;;;5.75;3.00;;;15.40;99.90;;;;;;5073542;28;20106;-55
2023/07/05 07:08:31;;;;;;;10.03;3.20;;;15.60;99.90;;;;;;5066100;28;20123;-55
2023/07/05 07:11:04;;;;;;;6.43;3.25;;;15.70;99.90;;;;;;5071515;28;20285;-56
2023/07/05 07:13:31;;;;;;;9.90;3.30;;;15.90;99.90;;;;;;5074704;28;20037;-56
2023/07/05 07:16:14;;;;;;;6.18;3.78;;;16.10;99.90;;;;;;5075410;28;20066;-55
2023/07/05 07:18:50;;;;;;;9.20;3.47;;;16.50;99.90;;;;;;5074945;28;20040;-55
2023/07/05 07:21:18;;;;;;;9.30;3.35;;;16.80;99.90;;;;;;5075074;28;20112;-56
2023/07/05 07:23:46;;;;;;;8.48;2.90;;;17.00;99.90;;;;;;5074971;28;20047;-54
2023/07/05 07:26:16;;;;;;;;;;;17.20;99.90;;;;;;5075177;28;20076;-56
2023/07/05 07:28:46;;;;;;;10.60;3.05;;;17.00;99.90;;;;;;5074933;28;19920;-55
2023/07/05 07:31:19;;;;;;;6.10;2.90;;;16.80;99.90;;;;;;5075066;28;20044;-55
2023/07/05 07:33:46;;;;;;;6.40;3.35;;;16.50;99.90;;;;;;5076228;28;20063;-56
2023/07/05 07:36:18;;;;;;;5.07;2.90;;;16.20;99.90;;;;;;5075662;28;20048;-56
2023/07/05 07:38:44;;;;;;;4.43;2.47;;;16.00;99.90;;;;;;5074840;28;20059;-55
2023/07/05 07:41:14;;;;;;;4.60;2.83;;;15.90;99.90;;;;;;5077293;28;20032;-56
2023/07/05 07:43:41;;;;;;;5.38;3.17;;;15.90;99.90;;;;;;5077140;28;20040;-55
2023/07/05 07:46:09;;;;;;;8.60;3.10;;;15.80;99.90;;;;;;5076100;28;20040;-56
2023/07/05 07:48:34;;;;;;;3.58;2.40;;;15.70;99.90;;;;;;5075656;28;20028;-55
2023/07/05 07:51:00;;;;;;;4.85;2.45;;;15.60;99.90;;;;;;5075053;28;20483;-55
2023/07/05 07:53:26;;;;;;;4.78;2.55;;;15.40;99.90;;;;;;5074899;28;20047;-55
2023/07/05 07:55:51;;;;;;;6.45;2.70;;;15.20;99.90;;;;;;5075512;28;20040;-55
2023/07/05 07:58:17;;;;;;;6.72;2.45;;;14.90;99.90;;;;;;5075413;28;20037;-56
2023/07/05 08:00:43;;;;;;;7.15;2.13;;;14.80;99.90;;;;;;5075933;28;20032;-55
2023/07/05 08:03:09;;;;;;;4.68;2.75;;;14.60;99.90;;;;;;5075426;28;20068;-55
2023/07/05 08:05:34;;;;;;;3.75;2.10;;;14.40;99.90;;;;;;5073615;28;20388;-55
2023/07/05 08:08:00;;;;;;;5.47;2.85;;;14.20;99.90;;;;;;5068916;28;20563;-55
2023/07/05 08:10:29;;;;;;;4.05;1.40;;;14.20;99.90;;;;;;5070548;28;20070;-55
2023/07/05 08:12:57;;;;;;;;;;;13.90;99.90;;;;;;5079320;28;20797;-55
2023/07/05 08:15:23;;;;;;;3.05;1.35;;;13.80;99.90;;;;;;5077487;28;19950;-55
2023/07/05 08:17:50;;;;;;;2.13;1.00;;;13.70;99.90;;;;;;5073604;28;20112;-55
2023/07/05 08:20:16;;;;;;;3.00;0.93;;;13.50;99.90;;;;;;5073209;28;20104;-55
2023/07/05 08:22:41;;;;;;;4.07;1.05;;;13.30;99.90;;;;;;5072668;28;20514;-55
2023/07/05 08:25:07;;;;;;;1.50;0.90;;;13.20;99.90;;;;;;5072776;28;20107;-54
2023/07/05 08:27:33;;;;;;;2.30;0.90;;;13.10;99.90;;;;;;5072551;28;20115;-55
2023/07/05 08:29:59;;;;;;;1.67;1.02;;;12.90;99.90;;;;;;5072556;28;20051;-54
2023/07/05 08:32:24;;;;;;;3.38;1.25;;;12.90;99.90;;;;;;5072610;28;20123;-55
2023/07/05 08:34:50;;;;;;;4.53;1.00;;;12.80;99.90;;;;;;5072082;28;20033;-54
2023/07/05 08:37:16;;;;;;;1.48;0.70;;;12.60;99.90;;;;;;5072394;28;20105;-55
2023/07/05 08:39:41;;;;;;;1.42;0.68;;;12.60;99.90;;;;;;5072412;28;20048;-53
2023/07/05 08:42:50;;;;;;;1.48;0.70;;;12.50;99.90;;;;;;5072133;28;20028;-55
2023/07/05 08:45:24;;;;;;;2.03;0.60;;;12.50;99.90;;;;;;5020317;28;20056;-54
2023/07/05 08:47:54;;;;;;;3.28;0.82;;;12.50;99.90;;;;;;5013410;28;20049;-55
2023/07/05 08:50:30;;;;;;;2.00;1.00;;;12.40;99.90;;;;;;5029988;28;20041;-55
2023/07/05 08:53:14;;;;;;;1.42;0.88;;;12.50;99.90;;;;;;5030077;28;20076;-55
2023/07/05 08:55:57;;;;;;;1.55;0.75;;;12.40;99.90;;;;;;5029859;28;20045;-55
2023/07/05 08:58:32;;;;;;;8.00;1.45;;;12.40;99.90;;;;;;5029941;28;20117;-54
2023/07/05 09:01:04;;;;;;;4.20;0.88;;;12.50;99.90;;;;;;5029751;28;20041;-55
2023/07/05 09:03:31;;;;;;;2.05;0.90;;;12.40;99.90;;;;;;5030869;28;20048;-55
2023/07/05 09:06:21;;;;;;;3.30;0.70;;;12.40;99.90;;;;;;5029331;28;20041;-55
2023/07/05 09:09:04;;;;;;;1.92;0.80;;;12.30;99.90;;;;;;5030899;28;20051;-54
2023/07/05 09:11:46;;;;;;;5.22;0.80;;;12.30;99.90;;;;;;5031222;28;20120;-54
2023/07/05 09:14:27;;;;;;;3.33;1.13;;;12.30;99.90;;;;;;5030032;28;20042;-54
2023/07/05 09:17:35;;;;;;;3.40;1.02;;;12.30;99.90;;;;;;5031199;28;20109;-55
2023/07/05 09:20:10;;;;;;;7.75;1.40;;;12.40;99.90;;;;;;5034857;28;20072;-55
2023/07/05 09:22:38;;;;;;;7.80;2.10;;;12.40;99.90;;;;;;5051279;28;20044;-54
2023/07/05 09:25:05;;;;;;;5.65;1.77;;;12.50;99.90;;;;;;5052422;28;20473;-54
2023/07/05 09:27:38;;;;;;;11.77;2.20;;;12.50;99.90;;;;;;5035045;28;20518;-55
2023/07/05 09:30:13;;;;;;;12.05;1.90;;;12.60;99.90;;;;;;5033401;28;20053;-56
2023/07/05 09:32:43;;;;;;;3.67;1.50;;;12.70;99.90;;;;;;5051229;28;20483;-57
2023/07/05 09:35:21;;;;;;;10.07;1.65;;;12.80;99.90;;;;;;5050838;28;20037;-55
2023/07/05 09:38:07;;;;;;;3.45;1.33;;;12.90;99.90;;;;;;5050574;28;20045;-56
2023/07/05 09:40:38;;;;;;;4.05;0.68;;;13.00;99.90;;;;;;5031966;28;20258;-55
2023/07/05 09:43:14;;;;;;;7.70;1.33;;;13.10;99.90;;;;;;5045831;28;20442;-56
2023/07/05 09:45:39;;;;;;;5.03;0.73;;;13.20;99.90;;;;;;5051702;28;20048;-56
2023/07/05 09:48:10;;;;;;;4.70;0.60;;;13.30;99.90;;;;;;5050563;28;20099;-56
2023/07/05 09:50:35;;;;;;;3.00;0.55;;;13.30;99.90;;;;;;5049783;28;20132;-56
2023/07/05 09:53:18;;;;;;;2.25;0.60;;;13.30;99.90;;;;;;5049765;28;20128;-56
2023/07/05 09:56:05;;;;;;;7.20;0.88;;;13.50;99.90;;;;;;5050820;28;20085;-57
2023/07/05 09:58:33;;;;;;;4.97;0.70;;;13.50;99.90;;;;;;5069660;28;20037;-56
2023/07/05 10:01:04;;;;;;;7.22;1.00;;;13.50;99.90;;;;;;5071754;28;20072;-56
2023/07/05 10:03:55;;;;;;;3.03;0.55;;;13.60;99.90;;;;;;5071718;28;20075;-57
2023/07/05 10:06:24;;;;;;;5.20;0.75;;;13.70;99.90;;;;;;5073157;28;20102;-57
2023/07/05 10:08:50;;;;;;;;;;;13.70;99.90;;;;;;5059020;28;20498;-57
2023/07/05 10:11:22;;;;;;;5.70;0.80;;;13.80;99.90;;;;;;5070781;28;19962;-57
2023/07/05 10:14:20;;;;;;;5.00;1.02;;;13.80;99.90;;;;;;5071789;28;20040;-56
2023/07/05 10:16:49;;;;;;;8.57;0.95;;;14.00;99.90;;;;;;5073381;28;20421;-57
2023/07/05 10:19:38;;;;;;;8.38;0.73;;;14.10;99.90;;;;;;5075387;28;20036;-57
2023/07/05 10:22:12;;;;;;;4.97;0.80;;;14.30;99.90;;;;;;5075638;28;20086;-57
2023/07/05 10:24:49;;;;;;;7.13;0.88;;;14.40;99.90;;;;;;5073866;28;20109;-57
2023/07/05 10:27:30;;;;;;;4.65;1.23;;;14.80;99.90;;;;;;5075386;28;20036;-57
2023/07/05 10:30:13;;;;;;;5.57;0.77;;;14.70;99.90;;;;;;5074953;28;20082;-57
2023/07/05 10:32:40;;;;;;;1.95;0.38;;;14.70;99.90;;;;;;5074892;28;20085;-57
2023/07/05 10:35:23;;;;;;;2.35;0.77;;;14.60;99.90;;;;;;5074648;28;20410;-58
2023/07/05 10:37:49;;;;;;;8.40;1.02;;;14.60;99.90;;;;;;5075187;28;20071;-57
2023/07/05 10:40:16;;;;;;;8.13;0.70;;;14.70;99.90;;;;;;5074954;28;20151;-58
2023/07/05 10:42:48;;;;;;;2.80;0.50;;;14.70;99.90;;;;;;5074932;28;20491;-57
2023/07/05 10:45:16;;;;;;;6.20;0.80;;;14.70;99.90;;;;;;5074471;28;20154;-57
2023/07/05 10:47:45;;;;;;;5.65;0.77;;;14.80;99.90;;;;;;5074668;28;20041;-57
2023/07/05 10:50:13;;;;;;;4.07;0.70;;;14.90;99.90;;;;;;5074694;28;20117;-57
2023/07/05 10:52:48;;;;;;;5.68;0.55;;;15.20;99.90;;;;;;5074921;28;20043;-57
2023/07/05 10:55:24;;;;;;;3.97;0.68;;;15.40;99.90;;;;;;5074126;28;20498;-57
2023/07/05 10:58:02;;;;;;;3.65;0.80;;;15.60;99.90;;;;;;5074731;28;20111;-58
2023/07/05 11:00:39;;;;;;;2.25;0.65;;;15.70;99.90;;;;;;5074680;28;20037;-56
2023/07/05 11:03:21;;;;;;;6.53;0.73;;;15.70;99.90;;;;;;5061706;28;20479;-58
2023/07/05 11:05:49;;;;;;;1.75;0.40;;;15.80;99.90;;;;;;5074733;28;20387;-57
2023/07/05 11:08:28;;;;;;;2.25;0.68;;;15.80;99.90;;;;;;5066373;28;20045;-57
2023/07/05 11:10:57;;;;;;;5.20;0.60;;;15.80;99.90;;;;;;5070630;28;20113;-57
2023/07/05 11:13:23;;;;;;;6.50;1.35;;;15.90;99.90;;;;;;5074825;28;20457;-57
2023/07/05 11:15:50;;;;;;;5.05;0.68;;;16.30;99.90;;;;;;5074354;28;20044;-57
2023/07/05 11:18:19;;;;;;;4.78;0.90;;;16.80;99.90;;;;;;5074391;28;20047;-58
2023/07/05 11:20:48;;;;;;;4.72;0.90;;;17.10;99.90;;;;;;5074025;28;20032;-57
2023/07/05 11:23:43;;;;;;;3.90;1.13;;;17.20;99.90;;;;;;5074353;28;20173;-59
2023/07/05 11:26:29;;;;;;;5.38;0.90;;;17.20;99.90;;;;;;5074121;28;20119;-58
2023/07/05 11:28:55;;;;;;;5.90;0.98;;;17.10;99.90;;;;;;5031189;28;20049;-58
2023/07/05 11:31:30;;;;;;;3.53;1.02;;;17.10;99.90;;;;;;5031681;28;20476;-58
2023/07/05 11:34:23;;;;;;;11.13;1.63;;;17.10;99.90;;;;;;5031908;28;20053;-57
2023/07/05 11:37:01;;;;;;;5.95;1.13;;;17.20;99.90;;;;;;5031766;28;20048;-58
2023/07/05 11:39:33;;;;;;;7.15;1.02;;;17.40;99.90;;;;;;5031795;28;20480;-58
2023/07/05 11:42:16;;;;;;;7.65;1.30;;;17.60;99.90;;;;;;5031633;28;20483;-58
2023/07/05 11:44:50;;;;;;;6.43;1.20;;;17.50;99.90;;;;;;5031717;28;20041;-58
2023/07/05 11:47:24;;;;;;;6.28;1.00;;;17.40;99.90;;;;;;5031883;28;20049;-57
2023/07/05 11:50:06;;;;;;;12.25;1.70;;;17.20;99.90;;;;;;5031639;28;20064;-57
2023/07/05 11:52:34;;;;;;;6.10;0.90;;;17.20;99.90;;;;;;5032124;28;20515;-58
2023/07/05 11:55:18;;;;;;;9.07;1.23;;;17.30;99.90;;;;;;5031421;28;20057;-57
2023/07/05 11:58:08;;;;;;;4.82;0.98;;;17.30;99.90;;;;;;5014322;28;20053;-57
2023/07/05 12:00:51;;;;;;;8.67;1.13;;;17.40;99.90;;;;;;5031441;28;20088;-57
2023/07/05 12:03:23;;;;;;;5.38;1.10;;;17.30;99.90;;;;;;5031256;28;20491;-58
2023/07/05 12:06:02;;;;;;;5.25;1.13;;;17.40;99.90;;;;;;5044470;28;20045;-58
2023/07/05 12:08:46;;;;;;;6.82;1.05;;;17.30;99.90;;;;;;5063674;28;20119;-58
2023/07/05 12:11:14;;;;;;;12.57;2.10;;;17.20;99.90;;;;;;5060152;28;20044;-58
2023/07/05 12:13:40;;;;;;;11.63;2.17;;;16.90;99.90;;;;;;5073522;28;20100;-58
2023/07/05 12:16:14;;;;;;;7.93;2.40;;;16.20;99.90;;;;;;5073124;28;20086;-58
2023/07/05 12:18:41;;;;;;;11.98;1.88;;;15.90;99.90;;;;;;5072926;28;20079;-57
2023/07/05 12:21:07;;;;;;;11.13;2.50;;;15.60;99.90;;;;;;5072836;28;20386;-58
2023/07/05 12:23:35;;;;;;;5.28;1.50;;;15.50;99.90;;;;;;5073019;28;20036;-57
2023/07/05 12:26:04;;;;;;;7.25;2.25;;;15.20;99.90;;;;;;5073057;28;20047;-57
2023/07/05 12:28:31;;;;;;;;;;;15.00;99.90;;;;;;5073737;28;20047;-57
2023/07/05 12:31:06;;;;;;;6.45;1.92;;;14.80;99.90;;;;;;5072773;28;19916;-57
2023/07/05 12:33:36;;;;;;;7.60;1.80;;;14.70;99.90;;;;;;5072912;28;20116;-57
2023/07/05 12:36:15;;;;;;;5.28;1.58;;;14.50;99.90;;;;;;5072885;28;20086;-57
2023/07/05 12:38:46;;;;;;;12.40;2.38;;;14.40;99.90;;;;;;5071146;28;20080;-57
2023/07/05 12:41:24;;;;;;;13.73;2.42;;;14.30;99.90;;;;;;5072790;28;20036;-56
2023/07/05 12:43:59;;;;;;;10.82;2.40;;;14.30;99.90;;;;;;5072571;28;20037;-58
2023/07/05 12:46:27;;;;;;;6.97;1.85;;;14.10;99.90;;;;;;5072711;28;20090;-57
2023/07/05 12:48:53;;;;;;;11.40;3.33;;;14.10;99.90;;;;;;5072622;28;20098;-57
2023/07/05 12:51:28;;;;;;;10.05;2.47;;;14.20;99.90;;;;;;5072748;28;20036;-57
2023/07/05 12:53:59;;;;;;;13.60;2.30;;;14.10;99.90;;;;;;5071252;28;20048;-57
2023/07/05 12:56:36;;;;;;;10.63;2.22;;;14.10;99.90;;;;;;5073088;28;20048;-57
2023/07/05 12:59:06;;;;;;;10.38;2.25;;;14.00;99.90;;;;;;5072229;28;20467;-57